sensor_id;sensor_type;location;lat;lon;timestamp;pressure;altitude;pressure_sealevel;temperature;humidity
45941;BME280;31858;46.008;8.978;2023-05-19T00:01:20;94752.28;;;11.54;100.00
45941;BME280;31858;46.008;8.978;2023-05-19T00:11:23;94755.56;;;11.33;100.00
45941;BME280;31858;46.008;8.978;2023-05-19T00:21:26;94761.19;;;11.21;100.00
45941;BME280;31858;46.008;8.978;2023-05-19T00:31:29;94764.44;;;11.00;100.00
45941;BME280;31858;46.008;8.978;2023-05-19T00:41:33;94775.06;;;10.97;100.00
45941;BME280;31858;46.008;8.978;2023-05-19T00:51:36;94785.75;;;10.97;100.00
45941;BME280;31858;46.008;8.978;2023-05-19T01:01:37;94772.03;;;10.98;100.00
45941;BME280;31858;46.008;8.978;2023-05-19T01:11:40;94771.97;;;10.91;100.00
45941;BME280;31858;46.008;8.978;2023-05-19T01:22:01;94770.75;;;10.82;100.00
45941;BME280;31858;46.008;8.978;2023-05-19T01:32:08;94772.66;;;10.81;100.00
45941;BME280;31858;46.008;8.978;2023-05-19T01:42:11;94778.38;;;10.83;100.00
45941;BME280;31858;46.008;8.978;2023-05-19T01:52:15;94771.88;;;10.81;100.00
45941;BME280;31858;46.008;8.978;2023-05-19T02:02:22;94777.16;;;10.77;100.00
45941;BME280;31858;46.008;8.978;2023-05-19T02:12:31;94771.88;;;10.81;100.00
45941;BME280;31858;46.008;8.978;2023-05-19T02:22:34;94774.50;;;10.77;100.00
45941;BME280;31858;46.008;8.978;2023-05-19T02:32:37;94777.28;;;10.88;100.00
45941;BME280;31858;46.008;8.978;2023-05-19T02:42:39;94773.53;;;10.96;100.00
45941;BME280;31858;46.008;8.978;2023-05-19T02:52:42;94769.75;;;10.97;100.00
45941;BME280;31858;46.008;8.978;2023-05-19T03:02:43;94769.06;;;11.07;100.00
45941;BME280;31858;46.008;8.978;2023-05-19T03:12:46;94774.84;;;11.13;100.00
45941;BME280;31858;46.008;8.978;2023-05-19T03:22:48;94778.66;;;11.15;100.00
45941;BME280;31858;46.008;8.978;2023-05-19T03:32:51;94779.84;;;11.18;100.00
45941;BME280;31858;46.008;8.978;2023-05-19T03:42:52;94781.38;;;11.19;100.00
45941;BME280;31858;46.008;8.978;2023-05-19T03:52:56;94792.81;;;11.19;100.00
45941;BME280;31858;46.008;8.978;2023-05-19T04:02:57;94796.56;;;11.15;100.00
45941;BME280;31858;46.008;8.978;2023-05-19T04:13:01;94808.63;;;11.01;100.00
45941;BME280;31858;46.008;8.978;2023-05-19T04:23:02;94821.19;;;11.01;100.00
45941;BME280;31858;46.008;8.978;2023-05-19T04:33:05;94817.00;;;11.00;100.00
45941;BME280;31858;46.008;8.978;2023-05-19T04:43:07;94816.59;;;10.98;100.00
45941;BME280;31858;46.008;8.978;2023-05-19T04:53:10;94817.78;;;11.00;100.00
45941;BME280;31858;46.008;8.978;2023-05-19T05:03:11;94822.34;;;11.00;100.00
45941;BME280;31858;46.008;8.978;2023-05-19T05:13:16;94823.88;;;11.01;100.00
45941;BME280;31858;46.008;8.978;2023-05-19T05:23:18;94819.72;;;11.03;100.00
45941;BME280;31858;46.008;8.978;2023-05-19T05:33:21;94820.88;;;11.06;100.00
45941;BME280;31858;46.008;8.978;2023-05-19T05:43:23;94829.31;;;11.11;100.00
45941;BME280;31858;46.008;8.978;2023-05-19T05:53:29;94819.38;;;11.08;100.00
45941;BME280;31858;46.008;8.978;2023-05-19T06:03:31;94836.56;;;11.15;100.00
45941;BME280;31858;46.008;8.978;2023-05-19T06:13:35;94838.13;;;11.19;100.00
45941;BME280;31858;46.008;8.978;2023-05-19T06:23:36;94839.69;;;11.20;100.00
45941;BME280;31858;46.008;8.978;2023-05-19T06:33:39;94841.91;;;11.15;100.00
45941;BME280;31858;46.008;8.978;2023-05-19T06:43:41;94832.31;;;11.06;100.00
45941;BME280;31858;46.008;8.978;2023-05-19T06:53:45;94851.78;;;11.10;100.00
45941;BME280;31858;46.008;8.978;2023-05-19T07:03:47;94861.31;;;11.11;100.00
45941;BME280;31858;46.008;8.978;2023-05-19T07:13:50;94868.88;;;11.06;100.00
45941;BME280;31858;46.008;8.978;2023-05-19T07:23:51;94860.88;;;11.06;100.00
45941;BME280;31858;46.008;8.978;2023-05-19T07:33:55;94858.91;;;10.99;100.00
45941;BME280;31858;46.008;8.978;2023-05-19T07:43:57;94863.50;;;11.02;100.00
45941;BME280;31858;46.008;8.978;2023-05-19T07:53:59;94861.13;;;10.94;100.00
45941;BME280;31858;46.008;8.978;2023-05-19T08:04:01;94877.16;;;10.97;100.00
45941;BME280;31858;46.008;8.978;2023-05-19T08:14:04;94870.25;;;10.93;100.00
45941;BME280;31858;46.008;8.978;2023-05-19T08:24:06;94880.97;;;10.96;100.00
45941;BME280;31858;46.008;8.978;2023-05-19T08:34:09;94868.75;;;10.95;100.00
45941;BME280;31858;46.008;8.978;2023-05-19T08:44:11;94878.66;;;10.95;100.00
45941;BME280;31858;46.008;8.978;2023-05-19T08:54:14;94883.22;;;10.94;100.00
45941;BME280;31858;46.008;8.978;2023-05-19T09:04:17;94858.91;;;10.99;100.00
45941;BME280;31858;46.008;8.978;2023-05-19T09:14:20;94865.19;;;11.18;100.00
45941;BME280;31858;46.008;8.978;2023-05-19T09:24:24;94868.72;;;11.29;100.00
45941;BME280;31858;46.008;8.978;2023-05-19T09:34:27;94865.31;;;11.32;100.00
45941;BME280;31858;46.008;8.978;2023-05-19T09:44:29;94863.84;;;11.38;100.00
45941;BME280;31858;46.008;8.978;2023-05-19T09:54:33;94850.91;;;11.40;100.00
45941;BME280;31858;46.008;8.978;2023-05-19T10:04:35;94840.66;;;11.46;100.00
45941;BME280;31858;46.008;8.978;2023-05-19T10:14:39;94841.94;;;11.62;100.00
45941;BME280;31858;46.008;8.978;2023-05-19T10:24:41;94821.00;;;11.71;100.00
45941;BME280;31858;46.008;8.978;2023-05-19T10:35:06;94826.88;;;11.88;100.00
45941;BME280;31858;46.008;8.978;2023-05-19T10:45:13;94812.44;;;11.96;100.00
45941;BME280;31858;46.008;8.978;2023-05-19T10:55:45;94804.81;;;12.01;100.00
45941;BME280;31858;46.008;8.978;2023-05-19T11:05:47;94801.03;;;12.02;100.00
45941;BME280;31858;46.008;8.978;2023-05-19T11:15:54;94784.22;;;12.02;100.00
45941;BME280;31858;46.008;8.978;2023-05-19T11:25:56;94773.63;;;12.16;100.00
45941;BME280;31858;46.008;8.978;2023-05-19T11:36:03;94748.03;;;12.15;100.00
45941;BME280;31858;46.008;8.978;2023-05-19T11:46:08;94738.91;;;12.20;100.00
45941;BME280;31858;46.008;8.978;2023-05-19T11:56:11;94733.94;;;12.18;100.00
45941;BME280;31858;46.008;8.978;2023-05-19T12:06:14;94704.16;;;12.13;100.00
45941;BME280;31858;46.008;8.978;2023-05-19T12:16:20;94730.81;;;12.02;100.00
45941;BME280;31858;46.008;8.978;2023-05-19T12:26:22;94746.81;;;11.95;100.00
45941;BME280;31858;46.008;8.978;2023-05-19T12:36:25;94750.53;;;11.80;100.00
45941;BME280;31858;46.008;8.978;2023-05-19T12:46:31;94758.81;;;11.60;100.00
45941;BME280;31858;46.008;8.978;2023-05-19T12:56:34;94769.06;;;11.55;100.00
45941;BME280;31858;46.008;8.978;2023-05-19T13:06:36;94780.94;;;11.64;100.00
45941;BME280;31858;46.008;8.978;2023-05-19T13:16:38;94786.97;;;11.54;100.00
45941;BME280;31858;46.008;8.978;2023-05-19T13:26:40;94794.63;;;11.56;100.00
45941;BME280;31858;46.008;8.978;2023-05-19T13:36:43;94786.25;;;11.61;100.00
45941;BME280;31858;46.008;8.978;2023-05-19T13:46:47;94792.41;;;11.65;100.00
45941;BME280;31858;46.008;8.978;2023-05-19T13:56:50;94785.94;;;11.69;100.00
45941;BME280;31858;46.008;8.978;2023-05-19T14:06:51;94795.63;;;11.92;100.00
45941;BME280;31858;46.008;8.978;2023-05-19T14:16:54;94799.41;;;11.87;100.00
45941;BME280;31858;46.008;8.978;2023-05-19T14:26:56;94797.47;;;11.84;100.00
45941;BME280;31858;46.008;8.978;2023-05-19T14:36:59;94793.28;;;11.83;100.00
45941;BME280;31858;46.008;8.978;2023-05-19T14:47:01;94781.84;;;11.83;100.00
45941;BME280;31858;46.008;8.978;2023-05-19T14:57:04;94784.50;;;11.83;100.00
45941;BME280;31858;46.008;8.978;2023-05-19T15:07:07;94767.25;;;11.69;100.00
45941;BME280;31858;46.008;8.978;2023-05-19T15:17:10;94770.28;;;11.71;100.00
45941;BME280;31858;46.008;8.978;2023-05-19T15:27:12;94774.88;;;11.67;100.00
45941;BME280;31858;46.008;8.978;2023-05-19T15:37:15;94760.38;;;11.65;100.00
45941;BME280;31858;46.008;8.978;2023-05-19T15:47:17;94775.63;;;11.68;100.00
45941;BME280;31858;46.008;8.978;2023-05-19T15:57:20;94772.53;;;11.59;100.00
45941;BME280;31858;46.008;8.978;2023-05-19T16:07:21;94774.44;;;11.62;100.00
45941;BME280;31858;46.008;8.978;2023-05-19T16:17:24;94774.03;;;11.56;100.00
45941;BME280;31858;46.008;8.978;2023-05-19T16:27:26;94762.56;;;11.52;100.00
45941;BME280;31858;46.008;8.978;2023-05-19T16:37:29;94761.78;;;11.48;100.00
45941;BME280;31858;46.008;8.978;2023-05-19T16:47:31;94735.84;;;11.45;100.00
45941;BME280;31858;46.008;8.978;2023-05-19T16:57:33;94743.84;;;11.45;100.00
45941;BME280;31858;46.008;8.978;2023-05-19T17:07:35;94737.69;;;11.37;100.00
45941;BME280;31858;46.008;8.978;2023-05-19T17:17:38;94749.50;;;11.36;100.00
45941;BME280;31858;46.008;8.978;2023-05-19T17:27:40;94753.31;;;11.39;100.00
45941;BME280;31858;46.008;8.978;2023-05-19T17:37:43;94751.00;;;11.34;100.00
45941;BME280;31858;46.008;8.978;2023-05-19T17:47:44;94753.31;;;11.39;100.00
45941;BME280;31858;46.008;8.978;2023-05-19T17:57:48;94760.94;;;11.37;100.00
45941;BME280;31858;46.008;8.978;2023-05-19T18:07:49;94781.16;;;11.38;100.00
45941;BME280;31858;46.008;8.978;2023-05-19T18:17:53;94782.69;;;11.39;100.00
45941;BME280;31858;46.008;8.978;2023-05-19T18:27:54;94778.81;;;11.33;100.00
45941;BME280;31858;46.008;8.978;2023-05-19T18:37:57;94776.50;;;11.31;100.00
45941;BME280;31858;46.008;8.978;2023-05-19T18:47:59;94785.28;;;11.32;100.00
45941;BME280;31858;46.008;8.978;2023-05-19T18:58:02;94799.72;;;11.27;100.00
45941;BME280;31858;46.008;8.978;2023-05-19T19:08:04;94806.56;;;11.25;100.00
45941;BME280;31858;46.008;8.978;2023-05-19T19:18:07;94815.00;;;11.30;100.00
45941;BME280;31858;46.008;8.978;2023-05-19T19:28:08;94820.31;;;11.27;100.00
45941;BME280;31858;46.008;8.978;2023-05-19T19:38:11;94835.91;;;11.25;100.00
45941;BME280;31858;46.008;8.978;2023-05-19T19:48:13;94853.78;;;11.21;100.00
45941;BME280;31858;46.008;8.978;2023-05-19T19:58:16;94850.75;;;11.22;100.00
45941;BME280;31858;46.008;8.978;2023-05-19T20:08:18;94846.09;;;11.16;100.00
45941;BME280;31858;46.008;8.978;2023-05-19T20:18:21;94837.28;;;11.08;100.00
45941;BME280;31858;46.008;8.978;2023-05-19T20:28:24;94824.63;;;11.01;100.00
45941;BME280;31858;46.008;8.978;2023-05-19T20:38:26;94793.16;;;11.18;100.00
45941;BME280;31858;46.008;8.978;2023-05-19T20:48:28;94776.72;;;11.08;100.00
45941;BME280;31858;46.008;8.978;2023-05-19T20:58:31;94786.50;;;10.97;100.00
45941;BME280;31858;46.008;8.978;2023-05-19T21:08:33;94781.84;;;10.87;100.00
45941;BME280;31858;46.008;8.978;2023-05-19T21:18:36;94780.25;;;10.79;100.00
45941;BME280;31858;46.008;8.978;2023-05-19T21:28:37;94785.56;;;10.79;100.00
45941;BME280;31858;46.008;8.978;2023-05-19T21:38:40;94791.63;;;10.76;100.00
45941;BME280;31858;46.008;8.978;2023-05-19T21:48:42;94807.63;;;10.76;100.00
45941;BME280;31858;46.008;8.978;2023-05-19T21:58:45;94816.81;;;10.82;100.00
45941;BME280;31858;46.008;8.978;2023-05-19T22:08:47;94822.88;;;10.79;100.00
45941;BME280;31858;46.008;8.978;2023-05-19T22:18:50;94827.50;;;10.82;100.00
45941;BME280;31858;46.008;8.978;2023-05-19T22:28:51;94840.81;;;10.82;100.00
45941;BME280;31858;46.008;8.978;2023-05-19T22:38:55;94849.91;;;10.77;100.00
45941;BME280;31858;46.008;8.978;2023-05-19T22:48:56;94838.72;;;10.65;100.00
45941;BME280;31858;46.008;8.978;2023-05-19T22:58:59;94829.47;;;10.55;100.00
45941;BME280;31858;46.008;8.978;2023-05-19T23:09:02;94824.09;;;10.52;100.00
45941;BME280;31858;46.008;8.978;2023-05-19T23:19:05;94818.69;;;10.44;100.00
45941;BME280;31858;46.008;8.978;2023-05-19T23:29:09;94810.28;;;10.42;100.00
45941;BME280;31858;46.008;8.978;2023-05-19T23:39:12;94811.81;;;10.43;100.00
45941;BME280;31858;46.008;8.978;2023-05-19T23:49:14;94801.94;;;10.44;100.00
45941;BME280;31858;46.008;8.978;2023-05-19T23:59:17;94809.19;;;10.47;100.00
